Other Surface Observations
Issued by NWS Great Falls, MT

Home | Current Version | Previous Version | Text Only | Print | Product List | Glossary On
Versions: 1 2 3 4 5 6 7 8 9 10 11 12 13 14 15 16 17 18 19 20 21 22 23 24 25 26 27 28 29 30 31 32 33 34 35 36 37 38 39 40 41 42 43 44 45 46 47 48 49 50
000
SXUS55 KTFX 230453
OSOTFX
AREA AWOS OBSERVATIONS
NATIONAL WEATHER SERVICE GREAT FALLS MT
1050 PM MDT FRI MAY 22 2015

METAR KPWD 230445Z AUTO 10010KT 10SM 16/02 A3006 RMK PLENTYWOOD
METAR KPO1 230445Z AUTO 10006KT 15/04 A3003 RMK POPLAR
METAR K1S3 230445Z AUTO 14006KT 10SM 14/06 A2997 RMK FORSYTH
METAR KS71 230445Z AUTO 08004KT 10SM 16/08 A2997 RMK CHINOOK
METAR K6S0 230445Z AUTO 11003KT 10SM 11/09 A2999 RMK BIG TIMBER
METAR K79S 230445Z AUTO 06014G22KT 10SM 14/07 A2998 RMK FORT BENTON
METAR K38S 230445Z AUTO 00000KT 10SM 10/03 A3000 RMK DEER LODGE
METAR K3U3 230445Z AUTO 25004KT 10SM 10/06 A2997 RMK ANACONDA
METAR K6S5 230445Z AUTO 11003KT 10SM 12/08 A2992 RMK HAMILTON
METAR KS59 230445Z AUTO 00000KT 10SM 16/03 A2991 RMK LIBBY
METAR K88M 230445Z AUTO 00000KT 10SM 19/M01 A2994 RMK EUREKA



USA.gov is the U.S. government's official web portal to all federal, state and local government web resources and services.